createdAt,value
2023-01-11T00:00:56.950Z,0.93
2023-01-11T00:01:56.972Z,1.05
2023-01-11T00:02:56.920Z,0.97
2023-01-11T00:03:56.895Z,1.05
2023-01-11T00:04:56.932Z,1.00
2023-01-11T00:05:56.864Z,1.12
2023-01-11T00:06:56.895Z,1.09
2023-01-11T00:07:56.855Z,1.06
2023-01-11T00:08:56.843Z,1.05
2023-01-11T00:09:56.819Z,1.04
2023-01-11T00:10:56.826Z,0.90
2023-01-11T00:11:56.795Z,1.09
2023-01-11T00:12:56.788Z,1.06
2023-01-11T00:13:56.814Z,1.09
2023-01-11T00:14:56.759Z,1.08
2023-01-11T00:15:56.841Z,1.06
2023-01-11T00:16:56.735Z,1.00
2023-01-11T00:17:56.753Z,1.06
2023-01-11T00:18:56.711Z,1.09
2023-01-11T00:19:56.728Z,1.00
2023-01-11T00:20:56.711Z,1.11
2023-01-11T00:21:56.695Z,1.15
2023-01-11T00:22:56.686Z,1.16
2023-01-11T00:23:56.669Z,1.18
2023-01-11T00:24:56.664Z,1.18
2023-01-11T00:25:56.660Z,1.12
2023-01-11T00:26:56.622Z,1.27
2023-01-11T00:27:56.634Z,1.18
2023-01-11T00:28:56.616Z,1.30
2023-01-11T00:29:56.623Z,1.26
2023-01-11T00:30:56.613Z,1.34
2023-01-11T00:31:56.586Z,1.30
2023-01-11T00:32:56.583Z,1.41
2023-01-11T00:33:56.547Z,1.42
2023-01-11T00:34:56.529Z,1.51
2023-01-11T00:35:56.530Z,1.51
2023-01-11T00:36:56.541Z,1.48
2023-01-11T00:37:56.509Z,1.54
2023-01-11T00:38:56.500Z,1.54
2023-01-11T00:39:56.479Z,1.59
2023-01-11T00:40:56.509Z,1.59
2023-01-11T00:41:56.480Z,1.70
2023-01-11T00:42:56.446Z,1.63
2023-01-11T00:43:56.440Z,1.73
2023-01-11T00:44:56.428Z,1.79
2023-01-11T00:45:56.474Z,1.79
2023-01-11T00:46:56.433Z,1.80
2023-01-11T00:47:56.397Z,1.77
2023-01-11T00:48:56.411Z,1.81
2023-01-11T00:49:56.369Z,1.86
2023-01-11T00:50:56.362Z,1.87
2023-01-11T00:51:56.348Z,2.00
2023-01-11T00:52:56.357Z,1.95
2023-01-11T00:53:56.325Z,1.93
2023-01-11T00:54:56.332Z,2.03
2023-01-11T00:55:56.299Z,2.05
2023-01-11T00:56:56.310Z,2.05
2023-01-11T00:57:56.290Z,2.12
2023-01-11T00:58:56.283Z,2.06
2023-01-11T00:59:56.257Z,2.20
2023-01-11T01:00:56.268Z,2.21
2023-01-11T01:01:56.251Z,2.18
2023-01-11T01:02:56.336Z,2.24
2023-01-11T01:03:56.205Z,2.38
2023-01-11T01:04:57.625Z,2.38
2023-01-11T01:05:57.016Z,2.49
2023-01-11T01:06:56.238Z,2.49
2023-01-11T01:07:56.186Z,2.57
2023-01-11T01:08:56.154Z,2.53
2023-01-11T01:09:56.160Z,2.66
2023-01-11T01:10:56.151Z,2.71
2023-01-11T01:11:56.122Z,2.77
2023-01-11T01:12:56.152Z,2.77
2023-01-11T01:13:56.099Z,2.82
2023-01-11T01:14:56.078Z,2.87
2023-01-11T01:15:56.109Z,2.87
2023-01-11T01:16:56.078Z,2.89
2023-01-11T01:17:56.173Z,2.96
2023-01-11T01:18:56.061Z,2.97
2023-01-11T01:19:56.022Z,2.95
2023-01-11T01:20:56.075Z,2.90
2023-01-11T01:21:56.021Z,3.02
2023-01-11T01:22:56.013Z,2.97
2023-01-11T01:23:55.979Z,2.99
2023-01-11T01:24:55.973Z,2.97
2023-01-11T01:25:55.979Z,3.00
2023-01-11T01:26:55.946Z,3.02
2023-01-11T01:27:55.941Z,2.99
2023-01-11T01:28:55.960Z,3.03
2023-01-11T01:29:55.915Z,2.99
2023-01-11T01:30:55.944Z,2.96
2023-01-11T01:31:55.891Z,2.92
2023-01-11T01:32:55.878Z,2.93
2023-01-11T01:33:55.870Z,3.03
2023-01-11T01:34:55.890Z,2.95
2023-01-11T01:35:55.851Z,2.97
2023-01-11T01:36:55.858Z,3.03
2023-01-11T01:37:55.819Z,3.06
2023-01-11T01:38:55.819Z,3.06
2023-01-11T01:39:55.835Z,3.15
2023-01-11T01:40:55.791Z,3.15
2023-01-11T01:41:55.773Z,3.08
2023-01-11T01:42:55.775Z,3.15
2023-01-11T01:43:55.749Z,3.11
2023-01-11T01:44:55.801Z,2.96
2023-01-11T01:45:55.792Z,3.14
2023-01-11T01:46:55.741Z,3.08
2023-01-11T01:47:55.705Z,3.13
2023-01-11T01:48:55.705Z,3.10
2023-01-11T01:49:55.693Z,3.13
2023-01-11T01:50:55.773Z,3.06
2023-01-11T01:51:55.686Z,3.10
2023-01-11T01:52:55.660Z,3.08
2023-01-11T01:53:55.651Z,3.10
2023-01-11T01:54:55.640Z,3.08
2023-01-11T01:55:55.642Z,3.06
2023-01-11T01:56:55.618Z,3.13
2023-01-11T01:57:55.596Z,3.03
2023-01-11T01:58:55.605Z,3.08
2023-01-11T01:59:55.575Z,3.15
2023-01-11T02:00:55.583Z,3.10
2023-01-11T02:01:55.630Z,3.20
2023-01-11T02:02:55.606Z,3.11
2023-01-11T02:03:55.552Z,3.08
2023-01-11T02:04:55.525Z,3.13
2023-01-11T02:05:55.526Z,3.14
2023-01-11T02:06:55.608Z,3.06
2023-01-11T02:07:55.482Z,3.13
2023-01-11T02:08:55.481Z,3.08
2023-01-11T02:09:55.458Z,3.14
2023-01-11T02:10:55.469Z,3.13
2023-01-11T02:11:55.433Z,3.10
2023-01-11T02:12:55.432Z,3.08
2023-01-11T02:13:55.441Z,3.10
2023-01-11T02:14:55.402Z,2.99
2023-01-11T02:15:55.424Z,3.13
2023-01-11T02:16:55.420Z,3.08
2023-01-11T02:17:55.387Z,3.06
2023-01-11T02:18:55.357Z,2.99
2023-01-11T02:19:55.344Z,3.11
2023-01-11T02:20:55.362Z,3.08
2023-01-11T02:21:55.321Z,3.06
2023-01-11T02:22:55.340Z,3.13
2023-01-11T02:23:55.323Z,3.13
2023-01-11T02:24:55.296Z,3.18
2023-01-11T02:25:55.299Z,3.18
2023-01-11T02:26:55.276Z,3.10
2023-01-11T02:27:55.271Z,3.10
2023-01-11T02:28:55.246Z,3.18
2023-01-11T02:29:55.247Z,3.17
2023-01-11T02:30:55.291Z,3.15
2023-01-11T02:31:55.229Z,3.13
2023-01-11T02:32:55.227Z,3.13
2023-01-11T02:33:55.214Z,3.24
2023-01-11T02:34:55.193Z,3.26
2023-01-11T02:35:55.164Z,3.23
2023-01-11T02:36:55.159Z,3.23
2023-01-11T02:37:55.157Z,3.24
2023-01-11T02:38:55.160Z,3.29
2023-01-11T02:39:55.127Z,3.29
2023-01-11T02:40:55.115Z,3.35
2023-01-11T02:41:55.600Z,3.39
2023-01-11T02:42:55.097Z,3.40
2023-01-11T02:43:55.100Z,3.35
2023-01-11T02:44:55.063Z,3.43
2023-01-11T02:45:57.235Z,3.39
2023-01-11T02:46:55.046Z,3.40
2023-01-11T02:47:55.030Z,3.47
2023-01-11T02:48:55.035Z,3.43
2023-01-11T02:49:55.006Z,3.48
2023-01-11T02:50:55.012Z,3.51
2023-01-11T02:51:54.992Z,3.45
2023-01-11T02:52:54.976Z,3.51
2023-01-11T02:53:54.981Z,3.50
2023-01-11T02:54:54.955Z,3.50
2023-01-11T02:55:54.937Z,3.50
2023-01-11T02:56:54.942Z,3.47
2023-01-11T02:57:54.912Z,3.50
2023-01-11T02:58:54.932Z,3.50
2023-01-11T02:59:54.897Z,3.52
2023-01-11T03:00:54.889Z,3.55
2023-01-11T03:01:54.937Z,3.45
2023-01-11T03:02:54.985Z,3.57
2023-01-11T03:03:54.862Z,3.61
2023-01-11T03:04:54.874Z,3.57
2023-01-11T03:05:54.819Z,3.66
2023-01-11T03:06:54.885Z,3.69
2023-01-11T03:07:54.809Z,3.65
2023-01-11T03:08:54.809Z,3.65
2023-01-11T03:09:54.780Z,3.66
2023-01-11T03:10:54.797Z,3.65
2023-01-11T03:11:54.755Z,3.62
2023-01-11T03:12:54.790Z,3.60
2023-01-11T03:13:54.730Z,3.58
2023-01-11T03:14:54.735Z,3.65
2023-01-11T03:15:54.746Z,3.60
2023-01-11T03:16:54.699Z,3.73
2023-01-11T03:17:54.682Z,3.70
2023-01-11T03:18:54.707Z,3.72
2023-01-11T03:19:54.673Z,3.65
2023-01-11T03:20:54.686Z,3.72
2023-01-11T03:21:54.652Z,3.69
2023-01-11T03:22:54.663Z,3.72
2023-01-11T03:23:54.647Z,3.72
2023-01-11T03:24:54.623Z,3.76
2023-01-11T03:25:54.621Z,3.76
2023-01-11T03:26:54.598Z,3.72
2023-01-11T03:27:54.598Z,3.76
2023-01-11T03:28:54.621Z,3.72
2023-01-11T03:29:54.556Z,3.76
2023-01-11T03:30:54.562Z,3.73
2023-01-11T03:31:54.547Z,3.78
2023-01-11T03:32:54.513Z,3.79
2023-01-11T03:33:54.500Z,3.79
2023-01-11T03:34:54.495Z,3.78
2023-01-11T03:35:54.484Z,3.80
2023-01-11T03:36:54.520Z,3.83
2023-01-11T03:37:54.558Z,3.78
2023-01-11T03:38:54.471Z,3.78
2023-01-11T03:39:54.445Z,3.87
2023-01-11T03:40:54.423Z,3.83
2023-01-11T03:41:54.433Z,3.87
2023-01-11T03:42:54.405Z,3.90
2023-01-11T03:43:54.390Z,3.94
2023-01-11T03:44:54.396Z,3.88
2023-01-11T03:45:54.374Z,3.94
2023-01-11T03:46:54.574Z,3.97
2023-01-11T03:47:54.336Z,3.90
2023-01-11T03:48:54.338Z,3.91
2023-01-11T03:49:54.344Z,3.96
2023-01-11T03:50:54.308Z,3.93
2023-01-11T03:51:54.304Z,3.96
2023-01-11T03:52:54.306Z,3.97
2023-01-11T03:53:54.281Z,4.02
2023-01-11T03:54:54.303Z,4.05
2023-01-11T03:55:54.248Z,4.06
2023-01-11T03:56:54.247Z,4.09
2023-01-11T03:57:54.226Z,4.11
2023-01-11T03:58:54.220Z,4.12
2023-01-11T03:59:54.223Z,4.09
2023-01-11T04:00:54.290Z,4.12
2023-01-11T04:01:54.191Z,4.16
2023-01-11T04:02:54.215Z,4.09
2023-01-11T04:03:54.195Z,4.09
2023-01-11T04:04:54.200Z,4.09
2023-01-11T04:05:54.160Z,4.15
2023-01-11T04:06:54.226Z,4.12
2023-01-11T04:07:54.136Z,4.09
2023-01-11T04:08:54.121Z,4.14
2023-01-11T04:09:54.095Z,4.11
2023-01-11T04:10:54.115Z,4.08
2023-01-11T04:11:54.069Z,4.11
2023-01-11T04:12:54.081Z,4.12
2023-01-11T04:13:54.058Z,4.09
2023-01-11T04:14:54.035Z,4.12
2023-01-11T04:15:54.068Z,4.09
2023-01-11T04:16:54.019Z,4.09
2023-01-11T04:17:54.010Z,4.06
2023-01-11T04:18:54.009Z,4.09
2023-01-11T04:19:54.005Z,4.09
2023-01-11T04:20:53.988Z,4.08
2023-01-11T04:21:53.955Z,4.11
2023-01-11T04:22:54.227Z,3.98
2023-01-11T04:23:53.938Z,4.05
2023-01-11T04:24:53.970Z,4.08
2023-01-11T04:25:53.937Z,3.98
2023-01-11T04:26:53.909Z,4.02
2023-01-11T04:27:53.900Z,4.04
2023-01-11T04:28:54.495Z,4.06
2023-01-11T04:29:53.966Z,4.00
2023-01-11T04:30:53.878Z,4.09
2023-01-11T04:31:53.915Z,4.06
2023-01-11T04:32:53.836Z,4.02
2023-01-11T04:33:53.848Z,4.02
2023-01-11T04:34:53.814Z,4.02
2023-01-11T04:35:53.820Z,4.02
2023-01-11T04:36:53.814Z,4.02
2023-01-11T04:37:53.777Z,4.00
2023-01-11T04:38:53.788Z,3.91
2023-01-11T04:39:53.755Z,4.00
2023-01-11T04:40:53.758Z,3.96
2023-01-11T04:41:53.728Z,3.97
2023-01-11T04:42:53.744Z,3.97
2023-01-11T04:43:53.821Z,3.93
2023-01-11T04:44:53.702Z,4.00
2023-01-11T04:45:53.732Z,3.96
2023-01-11T04:46:53.676Z,4.00
2023-01-11T04:47:53.660Z,4.02
2023-01-11T04:48:53.659Z,3.94
2023-01-11T04:49:53.704Z,4.02
2023-01-11T04:50:53.638Z,4.05
2023-01-11T04:51:53.628Z,4.05
2023-01-11T04:52:53.614Z,4.02
2023-01-11T04:53:53.602Z,4.00
2023-01-11T04:54:53.600Z,3.98
2023-01-11T04:55:53.581Z,4.02
2023-01-11T04:56:53.570Z,4.02
2023-01-11T04:57:53.554Z,3.97
2023-01-11T04:58:53.533Z,3.96
2023-01-11T04:59:53.558Z,3.94
2023-01-11T05:00:53.642Z,4.05
2023-01-11T05:01:53.500Z,4.06
2023-01-11T05:02:53.498Z,4.02
2023-01-11T05:03:53.549Z,4.00
2023-01-11T05:04:53.489Z,3.98
2023-01-11T05:05:53.457Z,4.04
2023-01-11T05:06:53.505Z,4.02
2023-01-11T05:07:53.456Z,4.02
2023-01-11T05:08:53.422Z,4.00
2023-01-11T05:09:53.448Z,4.02
2023-01-11T05:10:53.403Z,4.12
2023-01-11T05:11:53.391Z,4.08
2023-01-11T05:12:53.414Z,4.09
2023-01-11T05:13:53.371Z,4.08
2023-01-11T05:14:53.347Z,4.11
2023-01-11T05:15:53.353Z,4.12
2023-01-11T05:16:53.328Z,4.12
2023-01-11T05:17:53.328Z,4.09
2023-01-11T05:18:53.333Z,4.15
2023-01-11T05:19:53.315Z,4.18
2023-01-11T05:20:53.282Z,4.14
2023-01-11T05:21:53.309Z,4.16
2023-01-11T05:22:53.261Z,4.18
2023-01-11T05:23:53.253Z,4.20
2023-01-11T05:24:53.242Z,4.29
2023-01-11T05:25:53.235Z,4.33
2023-01-11T05:26:53.244Z,4.30
2023-01-11T05:27:53.208Z,4.26
2023-01-11T05:28:53.214Z,4.33
2023-01-11T05:29:53.206Z,4.30
2023-01-11T05:30:53.188Z,4.33
2023-01-11T05:31:53.256Z,4.33
2023-01-11T05:32:53.142Z,4.29
2023-01-11T05:33:53.137Z,4.36
2023-01-11T05:34:54.070Z,4.26
2023-01-11T05:35:54.505Z,4.33
2023-01-11T05:36:53.123Z,4.37
2023-01-11T05:37:53.097Z,4.40
2023-01-11T05:38:53.080Z,4.45
2023-01-11T05:39:53.087Z,4.33
2023-01-11T05:40:53.049Z,4.40
2023-01-11T05:41:53.061Z,4.33
2023-01-11T05:42:53.069Z,4.33
2023-01-11T05:43:53.024Z,4.37
2023-01-11T05:44:53.020Z,4.42
2023-01-11T05:45:53.065Z,4.52
2023-01-11T05:46:52.984Z,4.44
2023-01-11T05:47:52.974Z,4.42
2023-01-11T05:48:52.963Z,4.42
2023-01-11T05:49:52.964Z,4.44
2023-01-11T05:50:52.960Z,4.33
2023-01-11T05:51:52.935Z,4.47
2023-01-11T05:52:52.928Z,4.41
2023-01-11T05:53:52.915Z,4.33
2023-01-11T05:54:52.893Z,4.47
2023-01-11T05:55:52.905Z,4.44
2023-01-11T05:56:52.874Z,4.41
2023-01-11T05:57:52.867Z,4.40
2023-01-11T05:58:52.857Z,4.50
2023-01-11T05:59:53.057Z,4.48
2023-01-11T06:00:52.882Z,4.62
2023-01-11T06:01:52.839Z,4.52
2023-01-11T06:02:52.927Z,4.48
2023-01-11T06:03:52.795Z,4.62
2023-01-11T06:04:54.924Z,4.60
2023-01-11T06:05:52.803Z,4.67
2023-01-11T06:06:52.853Z,4.59
2023-01-11T06:07:52.751Z,4.66
2023-01-11T06:08:52.742Z,4.69
2023-01-11T06:09:52.734Z,4.66
2023-01-11T06:10:52.738Z,4.75
2023-01-11T06:11:52.727Z,4.77
2023-01-11T06:12:52.697Z,4.73
2023-01-11T06:13:52.693Z,4.75
2023-01-11T06:14:52.666Z,4.77
2023-01-11T06:15:52.691Z,4.72
2023-01-11T06:16:52.730Z,4.84
2023-01-11T06:17:52.661Z,4.84
2023-01-11T06:18:52.629Z,4.86
2023-01-11T06:19:52.622Z,4.88
2023-01-11T06:20:52.621Z,4.86
2023-01-11T06:21:52.616Z,4.86
2023-01-11T06:22:52.577Z,4.89
2023-01-11T06:23:52.599Z,4.86
2023-01-11T06:24:52.555Z,4.94
2023-01-11T06:25:52.553Z,5.00
2023-01-11T06:26:52.548Z,5.00
2023-01-11T06:27:52.546Z,4.99
2023-01-11T06:28:52.522Z,5.09
2023-01-11T06:29:52.520Z,5.00
2023-01-11T06:30:52.543Z,5.04
2023-01-11T06:31:52.515Z,5.03
2023-01-11T06:32:52.498Z,5.02
2023-01-11T06:33:52.470Z,5.04
2023-01-11T06:34:52.448Z,5.12
2023-01-11T06:35:52.441Z,5.12
2023-01-11T06:36:52.453Z,5.09
2023-01-11T06:37:52.418Z,5.06
2023-01-11T06:38:52.419Z,5.06
2023-01-11T06:39:52.392Z,5.13
2023-01-11T06:40:52.396Z,5.10
2023-01-11T06:41:52.390Z,5.12
2023-01-11T06:42:52.355Z,5.04
2023-01-11T06:43:52.355Z,5.10
2023-01-11T06:44:52.336Z,5.18
2023-01-11T06:45:52.386Z,5.18
2023-01-11T06:46:52.314Z,5.17
2023-01-11T06:47:52.310Z,5.24
2023-01-11T06:48:52.309Z,5.20
2023-01-11T06:49:52.298Z,5.18
2023-01-11T06:50:52.313Z,5.20
2023-01-11T06:51:52.293Z,5.18
2023-01-11T06:52:52.252Z,5.12
2023-01-11T06:53:52.238Z,5.15
2023-01-11T06:54:52.222Z,5.15
2023-01-11T06:55:52.232Z,5.20
2023-01-11T06:56:52.227Z,5.09
2023-01-11T06:57:52.198Z,5.20
2023-01-11T06:58:52.205Z,5.15
2023-01-11T06:59:52.166Z,5.20
2023-01-11T07:00:52.318Z,5.17
2023-01-11T07:01:52.164Z,5.13
2023-01-11T07:02:52.128Z,5.12
2023-01-11T07:03:52.140Z,5.18
2023-01-11T07:04:52.179Z,5.04
2023-01-11T07:05:52.133Z,5.20
2023-01-11T07:06:53.058Z,5.07
2023-01-11T07:07:52.084Z,5.00
2023-01-11T07:08:52.096Z,5.12
2023-01-11T07:09:52.051Z,5.03
2023-01-11T07:10:52.080Z,5.03
2023-01-11T07:11:52.032Z,5.12
2023-01-11T07:12:52.016Z,5.15
2023-01-11T07:13:52.039Z,5.00
2023-01-11T07:14:51.998Z,5.10
2023-01-11T07:15:52.041Z,5.12
2023-01-11T07:16:51.992Z,5.07
2023-01-11T07:17:51.959Z,5.06
2023-01-11T07:18:51.975Z,5.02
2023-01-11T07:19:51.943Z,5.03
2023-01-11T07:20:51.946Z,5.12
2023-01-11T07:21:51.923Z,5.00
2023-01-11T07:22:51.925Z,5.00
2023-01-11T07:23:51.919Z,5.06
2023-01-11T07:24:51.889Z,5.03
2023-01-11T07:25:51.974Z,5.09
2023-01-11T07:26:51.877Z,5.03
2023-01-11T07:27:51.856Z,5.03
2023-01-11T07:28:51.880Z,5.06
2023-01-11T07:29:51.852Z,5.00
2023-01-11T07:30:58.851Z,5.10
2023-01-11T07:31:52.824Z,5.00
2023-01-11T07:32:51.788Z,5.03
2023-01-11T07:33:51.860Z,5.06
2023-01-11T07:34:51.767Z,5.09
2023-01-11T07:35:51.776Z,5.15
2023-01-11T07:36:52.109Z,5.13
2023-01-11T07:37:51.757Z,5.15
2023-01-11T07:38:51.727Z,5.12
2023-01-11T07:39:51.721Z,5.13
2023-01-11T07:40:51.728Z,5.10
2023-01-11T07:41:51.711Z,5.13
2023-01-11T07:42:51.735Z,5.17
2023-01-11T07:43:51.682Z,5.13
2023-01-11T07:44:51.673Z,5.17
2023-01-11T07:45:51.705Z,5.24
2023-01-11T07:46:51.800Z,5.15
2023-01-11T07:47:51.643Z,5.21
2023-01-11T07:48:51.619Z,5.12
2023-01-11T07:49:51.609Z,5.33
2023-01-11T07:50:51.608Z,5.25
2023-01-11T07:51:51.583Z,5.38
2023-01-11T07:52:51.582Z,5.30
2023-01-11T07:53:51.563Z,5.22
2023-01-11T07:54:51.555Z,5.30
2023-01-11T07:55:51.567Z,5.30
2023-01-11T07:56:51.551Z,5.35
2023-01-11T07:57:51.546Z,5.43
2023-01-11T07:58:51.515Z,5.38
2023-01-11T07:59:51.513Z,5.35
2023-01-11T08:00:51.576Z,5.36
2023-01-11T08:01:51.586Z,5.43
2023-01-11T08:02:51.659Z,5.46
2023-01-11T08:03:51.630Z,5.42
2023-01-11T08:04:51.493Z,5.49
2023-01-11T08:05:51.541Z,5.49
2023-01-11T08:06:51.513Z,5.49
2023-01-11T08:07:51.424Z,5.53
2023-01-11T08:08:51.463Z,5.51
2023-01-11T08:09:51.402Z,5.53
2023-01-11T08:10:51.388Z,5.49
2023-01-11T08:11:51.363Z,5.56
2023-01-11T08:12:51.682Z,5.64
2023-01-11T08:13:51.390Z,5.57
2023-01-11T08:14:51.339Z,5.65
2023-01-11T08:15:51.346Z,5.64
2023-01-11T08:16:51.403Z,5.72
2023-01-11T08:17:51.329Z,5.74
2023-01-11T08:18:51.317Z,5.76
2023-01-11T08:19:51.273Z,5.81
2023-01-11T08:20:51.261Z,5.71
2023-01-11T08:21:51.287Z,5.74
2023-01-11T08:22:52.128Z,5.81
2023-01-11T08:23:51.247Z,5.90
2023-01-11T08:24:51.226Z,5.81
2023-01-11T08:25:51.200Z,5.83
2023-01-11T08:26:51.243Z,5.86
2023-01-11T08:27:51.203Z,5.79
2023-01-11T08:28:51.163Z,5.96
2023-01-11T08:29:51.159Z,5.89
2023-01-11T08:30:51.202Z,5.90
2023-01-11T08:31:51.157Z,5.96
2023-01-11T08:32:51.119Z,6.01
2023-01-11T08:33:51.125Z,5.99
2023-01-11T08:34:51.097Z,6.04
2023-01-11T08:35:51.212Z,5.96
2023-01-11T08:36:51.091Z,6.06
2023-01-11T08:37:51.074Z,6.06
2023-01-11T08:38:51.044Z,6.04
2023-01-11T08:39:51.055Z,6.17
2023-01-11T08:40:52.732Z,6.14
2023-01-11T08:41:51.032Z,6.06
2023-01-11T08:42:51.013Z,6.18
2023-01-11T08:43:51.023Z,6.17
2023-01-11T08:44:50.980Z,6.09
2023-01-11T08:45:51.009Z,6.25
2023-01-11T08:46:52.537Z,6.27
2023-01-11T08:47:50.964Z,6.30
2023-01-11T08:48:51.823Z,6.21
2023-01-11T08:49:50.929Z,6.27
2023-01-11T08:50:50.912Z,6.28
2023-01-11T08:51:51.083Z,6.33
2023-01-11T08:52:51.325Z,6.36
2023-01-11T08:53:50.887Z,6.30
2023-01-11T08:54:50.871Z,6.38
2023-01-11T08:55:50.868Z,6.36
2023-01-11T08:56:50.951Z,6.36
2023-01-11T08:57:50.844Z,6.38
2023-01-11T08:58:50.841Z,6.31
2023-01-11T08:59:50.816Z,6.41
2023-01-11T09:00:50.834Z,6.36
2023-01-11T09:01:50.830Z,6.51
2023-01-11T09:02:50.866Z,6.43
2023-01-11T09:03:50.775Z,6.48
2023-01-11T09:04:50.753Z,6.48
2023-01-11T09:05:50.753Z,6.54
2023-01-11T09:06:50.754Z,6.46
2023-01-11T09:07:50.728Z,6.52
2023-01-11T09:08:50.710Z,6.48
2023-01-11T09:09:50.705Z,6.61
2023-01-11T09:10:50.690Z,6.59
2023-01-11T09:11:50.697Z,6.55
2023-01-11T09:12:50.987Z,6.66
2023-01-11T09:13:50.662Z,6.56
2023-01-11T09:14:50.652Z,6.66
2023-01-11T09:15:50.733Z,6.62
2023-01-11T09:16:50.641Z,6.62
2023-01-11T09:17:50.627Z,6.69
2023-01-11T09:18:50.609Z,6.71
2023-01-11T09:19:50.582Z,6.64
2023-01-11T09:20:50.585Z,6.71
2023-01-11T09:21:50.576Z,6.79
2023-01-11T09:22:52.710Z,6.79
2023-01-11T09:23:50.544Z,6.74
2023-01-11T09:24:50.545Z,6.70
2023-01-11T09:25:50.511Z,6.76
2023-01-11T09:26:50.551Z,6.77
2023-01-11T09:27:50.526Z,6.85
2023-01-11T09:28:50.554Z,6.87
2023-01-11T09:29:50.491Z,6.84
2023-01-11T09:30:50.462Z,6.91
2023-01-11T09:31:50.468Z,6.79
2023-01-11T09:32:50.447Z,6.85
2023-01-11T09:33:50.417Z,6.80
2023-01-11T09:34:50.409Z,6.91
2023-01-11T09:35:50.393Z,6.84
2023-01-11T09:36:50.410Z,6.84
2023-01-11T09:37:50.386Z,6.91
2023-01-11T09:38:50.367Z,6.76
2023-01-11T09:39:50.392Z,6.91
2023-01-11T09:40:50.370Z,6.91
2023-01-11T09:41:50.331Z,6.91
2023-01-11T09:42:50.327Z,6.91
2023-01-11T09:43:50.300Z,6.98
2023-01-11T09:44:50.329Z,6.91
2023-01-11T09:45:50.331Z,6.98
2023-01-11T09:46:50.302Z,7.02
2023-01-11T09:47:50.263Z,6.95
2023-01-11T09:48:50.254Z,6.97
2023-01-11T09:49:50.240Z,7.03
2023-01-11T09:50:50.325Z,6.98
2023-01-11T09:51:50.206Z,7.06
2023-01-11T09:52:50.284Z,7.05
2023-01-11T09:53:50.216Z,7.09
2023-01-11T09:54:50.177Z,7.15
2023-01-11T09:55:50.180Z,7.13
2023-01-11T09:56:50.187Z,7.13
2023-01-11T09:57:50.236Z,7.13
2023-01-11T09:58:50.145Z,7.16
2023-01-11T09:59:50.117Z,7.13
2023-01-11T10:00:50.253Z,7.30
2023-01-11T10:01:50.115Z,7.27
2023-01-11T10:02:50.085Z,7.32
2023-01-11T10:03:50.113Z,7.28
2023-01-11T10:04:50.213Z,7.30
2023-01-11T10:05:50.125Z,7.30
2023-01-11T10:06:50.147Z,7.45
2023-01-11T10:07:50.037Z,7.40
2023-01-11T10:18:23.802Z,7.43
2023-01-11T10:18:26.736Z,7.40
2023-01-11T10:18:28.361Z,7.52
2023-01-11T10:18:32.894Z,7.53
2023-01-11T10:19:18.574Z,7.53
2023-01-11T10:19:50.923Z,7.50
2023-01-11T10:20:49.880Z,7.50
2023-01-11T10:21:49.867Z,7.52
2023-01-11T10:22:49.883Z,7.55
2023-01-11T10:23:49.847Z,7.55
2023-01-11T10:24:49.851Z,7.60
2023-01-11T10:25:49.820Z,7.61
2023-01-11T10:26:49.841Z,7.49
2023-01-11T10:27:49.794Z,7.57
2023-01-11T10:28:49.788Z,7.50
2023-01-11T10:29:49.839Z,7.67
2023-01-11T10:30:49.773Z,7.52
2023-01-11T10:31:49.760Z,7.55
2023-01-11T10:32:49.761Z,7.69
2023-01-11T10:33:49.753Z,7.67
2023-01-11T10:34:49.716Z,7.69
2023-01-11T10:35:49.728Z,7.61
2023-01-11T10:36:49.699Z,7.74
2023-01-11T10:37:49.696Z,7.77
2023-01-11T10:38:49.674Z,7.69
2023-01-11T10:39:49.691Z,7.77
2023-01-11T10:40:49.652Z,7.83
2023-01-11T10:41:49.640Z,7.79
2023-01-11T10:42:49.629Z,7.77
2023-01-11T10:43:49.638Z,7.85
2023-01-11T10:44:49.612Z,7.85
2023-01-11T10:45:49.657Z,7.86
2023-01-11T10:46:49.590Z,7.83
2023-01-11T10:47:49.592Z,7.86
2023-01-11T10:48:49.583Z,7.92
2023-01-11T10:49:49.567Z,7.83
2023-01-11T10:50:49.535Z,7.89
2023-01-11T10:51:49.547Z,7.95
2023-01-11T10:52:49.513Z,7.87
2023-01-11T10:53:49.546Z,7.98
2023-01-11T10:54:50.234Z,7.97
2023-01-11T10:55:49.472Z,8.01
2023-01-11T10:57:01.672Z,8.02
2023-01-11T10:57:59.765Z,7.93
2023-01-11T10:58:50.463Z,7.98
2023-01-11T10:59:49.419Z,8.10
2023-01-11T11:00:49.435Z,8.07
2023-01-11T11:01:49.464Z,8.04
2023-01-11T11:02:49.426Z,8.08
2023-01-11T11:03:49.387Z,8.08
2023-01-11T11:04:49.395Z,8.05
2023-01-11T11:05:49.363Z,8.05
2023-01-11T11:06:49.351Z,8.07
2023-01-11T11:07:49.358Z,8.07
2023-01-11T11:08:49.354Z,8.05
2023-01-11T11:09:49.314Z,8.10
2023-01-11T11:10:49.304Z,8.16
2023-01-11T11:11:49.296Z,8.15
2023-01-11T11:12:49.283Z,8.15
2023-01-11T11:13:49.291Z,8.19
2023-01-11T11:14:49.279Z,8.15
2023-01-11T11:15:49.244Z,8.18
2023-01-11T11:16:49.234Z,8.23
2023-01-11T11:17:49.241Z,8.26
2023-01-11T11:18:49.239Z,8.26
2023-01-11T11:19:49.205Z,8.29
2023-01-11T11:20:49.243Z,8.25
2023-01-11T11:21:49.177Z,8.28
2023-01-11T11:22:49.166Z,8.28
2023-01-11T11:23:49.206Z,8.22
2023-01-11T11:24:49.168Z,8.34
2023-01-11T11:25:49.147Z,8.34
2023-01-11T11:26:49.138Z,8.30
2023-01-11T11:27:49.111Z,8.28
2023-01-11T11:28:49.093Z,8.33
2023-01-11T11:29:49.108Z,8.25
2023-01-11T11:30:49.083Z,8.26
2023-01-11T11:31:49.150Z,8.26
2023-01-11T11:32:49.097Z,8.20
2023-01-11T11:33:49.034Z,8.26
2023-01-11T11:34:49.030Z,8.37
2023-01-11T11:35:49.032Z,8.34
2023-01-11T11:36:49.048Z,8.34
2023-01-11T11:37:48.994Z,8.40
2023-01-11T11:38:49.001Z,8.41
2023-01-11T11:39:48.974Z,8.43
2023-01-11T11:40:48.962Z,8.36
2023-01-11T11:41:48.948Z,8.30
2023-01-11T11:42:48.943Z,8.40
2023-01-11T11:43:48.948Z,8.44
2023-01-11T11:44:48.926Z,8.43
2023-01-11T11:45:49.003Z,8.43
2023-01-11T11:46:48.893Z,8.44
2023-01-11T11:47:48.875Z,8.41
2023-01-11T11:48:48.995Z,8.43
2023-01-11T11:49:48.862Z,8.40
2023-01-11T11:50:48.864Z,8.43
2023-01-11T11:51:48.829Z,8.43
2023-01-11T11:52:48.852Z,8.48
2023-01-11T11:53:48.828Z,8.36
2023-01-11T11:54:48.803Z,8.47
2023-01-11T11:55:48.791Z,8.43
2023-01-11T11:56:48.777Z,8.45
2023-01-11T11:57:48.786Z,8.52
2023-01-11T11:58:48.755Z,8.47
2023-01-11T11:59:48.773Z,8.52
2023-01-11T12:00:48.743Z,8.34
2023-01-11T12:01:48.770Z,8.44
2023-01-11T12:02:48.706Z,8.43
2023-01-11T12:03:48.690Z,8.45
2023-01-11T12:04:48.772Z,8.45
2023-01-11T12:05:48.673Z,8.48
2023-01-11T12:06:49.410Z,8.45
2023-01-11T12:07:55.702Z,8.53
2023-01-11T12:08:49.668Z,8.47
2023-01-11T12:09:48.619Z,8.56
2023-01-11T12:10:48.639Z,8.50
2023-01-11T12:11:48.600Z,8.50
2023-01-11T12:12:48.598Z,8.53
2023-01-11T12:13:48.579Z,8.52
2023-01-11T12:14:48.614Z,8.56
2023-01-11T12:15:48.554Z,8.56
2023-01-11T12:16:48.587Z,8.53
2023-01-11T12:17:48.538Z,8.55
2023-01-11T12:18:48.689Z,8.53
2023-01-11T12:19:48.511Z,8.61
2023-01-11T12:20:48.536Z,8.56
2023-01-11T12:21:48.514Z,8.59
2023-01-11T12:22:48.499Z,8.55
2023-01-11T12:23:48.482Z,8.52
2023-01-11T12:24:48.482Z,8.62
2023-01-11T12:25:48.436Z,8.58
2023-01-11T12:26:48.626Z,8.61
2023-01-11T12:27:48.440Z,8.61
2023-01-11T12:28:48.418Z,8.63
2023-01-11T12:29:48.395Z,8.62
2023-01-11T12:30:48.412Z,8.68
2023-01-11T12:31:48.376Z,8.62
2023-01-11T12:32:48.398Z,8.74
2023-01-11T12:33:48.355Z,8.66
2023-01-11T12:34:48.342Z,8.62
2023-01-11T12:35:48.333Z,8.74
2023-01-11T12:36:48.351Z,8.70
2023-01-11T12:37:48.304Z,8.68
2023-01-11T12:38:48.311Z,8.66
2023-01-11T12:39:48.279Z,8.66
2023-01-11T12:40:48.300Z,8.65
2023-01-11T12:41:48.294Z,8.63
2023-01-11T12:42:48.249Z,8.68
2023-01-11T12:43:48.250Z,8.66
2023-01-11T12:44:48.259Z,8.68
2023-01-11T12:45:48.217Z,8.61
2023-01-11T12:46:48.220Z,8.65
2023-01-11T12:47:48.207Z,8.62
2023-01-11T12:48:48.198Z,8.61
2023-01-11T12:49:48.251Z,8.55
2023-01-11T12:50:48.174Z,8.58
2023-01-11T12:51:48.165Z,8.56
2023-01-11T12:52:48.133Z,8.56
2023-01-11T12:53:48.146Z,8.52
2023-01-11T12:54:48.147Z,8.48
2023-01-11T12:55:48.122Z,8.45
2023-01-11T12:56:48.133Z,8.44
2023-01-11T12:57:48.103Z,8.44
2023-01-11T12:58:48.063Z,8.43
2023-01-11T12:59:48.050Z,8.43
2023-01-11T13:00:48.062Z,8.45
2023-01-11T13:01:48.146Z,8.45
2023-01-11T13:02:48.064Z,8.43
2023-01-11T13:03:48.021Z,8.40
2023-01-11T13:04:48.007Z,8.34
2023-01-11T13:05:47.979Z,8.34
2023-01-11T13:06:47.981Z,8.34
2023-01-11T13:07:47.984Z,8.20
2023-01-11T13:08:47.952Z,8.22
2023-01-11T13:09:47.980Z,8.25
2023-01-11T13:10:47.931Z,8.29
2023-01-11T13:11:47.917Z,8.25
2023-01-11T13:12:47.942Z,8.16
2023-01-11T13:13:47.919Z,8.12
2023-01-11T13:14:47.898Z,8.18
2023-01-11T13:15:47.882Z,8.15
2023-01-11T13:16:47.916Z,8.15
2023-01-11T13:17:47.852Z,8.12
2023-01-11T13:18:47.833Z,8.10
2023-01-11T13:19:47.850Z,8.10
2023-01-11T13:21:00.716Z,8.07
2023-01-11T13:21:48.803Z,7.93
2023-01-11T13:22:47.806Z,7.92
2023-01-11T13:23:47.811Z,7.98
2023-01-11T13:24:47.792Z,7.97